createdAt,value
2019-05-13T00:01:54.479Z,103906.38
2019-05-13T00:04:27.842Z,103907.64
2019-05-13T00:07:01.219Z,103909.88
2019-05-13T00:09:34.569Z,103904.48
2019-05-13T00:12:07.919Z,103911.08
2019-05-13T00:14:43.312Z,103909.23
2019-05-13T00:17:16.289Z,103915.79
2019-05-13T00:19:49.651Z,103910.58
2019-05-13T00:22:23.531Z,103919.14
2019-05-13T00:24:56.970Z,103919.23
2019-05-13T00:27:30.274Z,103916.02
2019-05-13T00:30:05.356Z,103914.39
2019-05-13T00:32:38.724Z,103915.11
2019-05-13T00:35:14.256Z,103922.92
2019-05-13T00:37:47.235Z,103914.13
2019-05-13T00:40:20.578Z,103914.55
2019-05-13T00:42:54.517Z,103916.31
2019-05-13T00:45:27.892Z,103914.64
2019-05-13T00:48:01.210Z,103915.48
2019-05-13T00:50:34.550Z,103907.66
2019-05-13T00:53:07.922Z,103911.20
2019-05-13T00:55:41.263Z,103915.01
2019-05-13T00:58:14.559Z,103914.22
2019-05-13T01:00:47.915Z,103914.91
2019-05-13T01:03:21.235Z,103917.15
2019-05-13T01:05:54.558Z,103916.68
2019-05-13T01:08:27.869Z,103914.96
2019-05-13T01:11:01.213Z,103922.31
2019-05-13T01:13:34.521Z,103917.44
2019-05-13T01:16:07.855Z,103922.72
2019-05-13T01:18:43.231Z,103918.36
2019-05-13T01:21:16.190Z,103920.88
2019-05-13T01:23:49.530Z,103861.89
2019-05-13T01:26:23.323Z,103917.29
2019-05-13T01:28:56.834Z,103920.78
2019-05-13T01:31:30.157Z,103922.50
2019-05-13T01:34:04.107Z,103925.94
2019-05-13T01:36:37.671Z,103921.56
2019-05-13T01:39:10.951Z,103924.17
2019-05-13T01:41:44.280Z,103928.88
2019-05-13T01:44:17.580Z,103927.99
2019-05-13T01:46:50.923Z,103927.48
2019-05-13T01:49:24.283Z,103929.10
2019-05-13T01:51:57.748Z,103935.24
2019-05-13T01:54:33.609Z,103942.92
2019-05-13T01:57:06.180Z,103940.73
2019-05-13T01:59:39.495Z,103939.02
2019-05-13T02:02:13.745Z,103942.45
2019-05-13T02:04:48.293Z,103937.56
2019-05-13T02:07:24.382Z,103939.33
2019-05-13T02:09:57.794Z,103939.65
2019-05-13T02:12:31.154Z,103934.02
2019-05-13T02:15:05.812Z,103934.13
2019-05-13T02:17:39.156Z,103936.97
2019-05-13T02:20:14.775Z,103932.73
2019-05-13T02:22:48.893Z,103929.62
2019-05-13T02:25:23.717Z,103927.38
2019-05-13T02:27:57.135Z,103932.02
2019-05-13T02:30:30.545Z,103932.08
2019-05-13T02:33:03.926Z,103920.36
2019-05-13T02:35:37.286Z,103927.75
2019-05-13T02:38:19.480Z,103930.30
2019-05-13T02:40:45.626Z,103932.86
2019-05-13T02:43:22.721Z,103928.35
2019-05-13T02:45:54.482Z,103929.70
2019-05-13T02:48:27.906Z,103930.02
2019-05-13T02:51:03.640Z,103930.91
2019-05-13T02:53:37.331Z,103935.23
2019-05-13T02:56:11.684Z,103932.20
2019-05-13T02:58:45.172Z,103928.67
2019-05-13T03:01:18.469Z,103930.85
2019-05-13T03:03:52.842Z,103934.63
2019-05-13T03:06:26.419Z,103930.25
2019-05-13T03:09:02.949Z,103919.66
2019-05-13T03:11:34.867Z,103933.73
2019-05-13T03:14:08.229Z,103938.06
2019-05-13T03:16:42.837Z,103939.72
2019-05-13T03:19:16.264Z,103937.95
2019-05-13T03:21:52.479Z,103941.30
2019-05-13T03:24:26.258Z,103946.59
2019-05-13T03:27:02.273Z,103954.31
2019-05-13T03:29:34.605Z,103950.36
2019-05-13T03:32:08.070Z,103960.77
2019-05-13T03:34:45.376Z,103962.80
2019-05-13T03:37:16.838Z,103961.29
2019-05-13T03:39:52.355Z,103967.05
2019-05-13T03:42:25.475Z,103971.34
2019-05-13T03:44:58.796Z,103975.41
2019-05-13T03:47:33.135Z,103969.60
2019-05-13T03:50:06.506Z,103972.02
2019-05-13T03:52:43.099Z,103974.83
2019-05-13T03:55:14.843Z,103979.18
2019-05-13T03:57:48.441Z,103978.45
2019-05-13T04:00:23.586Z,103976.81
2019-05-13T04:02:56.898Z,103981.89
2019-05-13T04:05:33.463Z,103981.08
2019-05-13T04:08:05.250Z,103986.86
2019-05-13T04:10:41.938Z,103992.62
2019-05-13T04:13:13.946Z,103995.73
2019-05-13T04:15:47.308Z,103990.14
2019-05-13T04:18:23.548Z,103986.27
2019-05-13T04:20:55.962Z,103987.62
2019-05-13T04:23:32.048Z,103988.87
2019-05-13T04:26:04.306Z,103986.25
2019-05-13T04:28:37.544Z,103983.83
2019-05-13T04:31:14.137Z,103985.73
2019-05-13T04:33:45.934Z,103986.31
2019-05-13T04:36:19.269Z,103984.67
2019-05-13T04:38:53.046Z,103980.84
2019-05-13T04:41:26.579Z,103979.08
2019-05-13T04:44:02.513Z,103979.57
2019-05-13T04:46:36.030Z,103985.26
2019-05-13T04:49:12.405Z,103984.87
2019-05-13T04:51:44.375Z,103983.10
2019-05-13T04:54:17.689Z,103979.27
2019-05-13T04:56:52.485Z,103979.80
2019-05-13T04:59:26.158Z,103983.72
2019-05-13T05:02:22.358Z,103982.83
2019-05-13T05:05:02.958Z,103928.39
2019-05-13T05:07:52.549Z,103984.87
2019-05-13T05:10:38.762Z,103987.94
2019-05-13T05:13:36.565Z,103992.72
2019-05-13T05:16:22.128Z,103988.76
2019-05-13T05:19:23.624Z,103985.56
2019-05-13T05:22:22.146Z,103985.56
2019-05-13T05:25:14.345Z,103992.98
2019-05-13T05:27:53.971Z,104001.65
2019-05-13T05:30:59.252Z,103998.51
2019-05-13T05:33:45.113Z,104003.34
2019-05-13T05:36:37.032Z,103999.84
2019-05-13T05:39:22.881Z,103999.84
2019-05-13T05:41:56.980Z,103998.51
2019-05-13T05:44:32.509Z,104005.41
2019-05-13T05:47:06.823Z,104006.25
2019-05-13T05:49:41.142Z,104005.34
2019-05-13T05:52:14.600Z,104013.64
2019-05-13T05:54:47.991Z,104018.81
2019-05-13T05:57:22.537Z,104017.83
2019-05-13T05:59:55.891Z,104027.40
2019-05-13T06:02:32.026Z,104029.57
2019-05-13T06:05:05.480Z,104018.94
2019-05-13T06:07:38.835Z,104011.62
2019-05-13T06:10:12.269Z,104011.66
2019-05-13T06:12:45.720Z,104011.31
2019-05-13T06:15:19.024Z,104011.91
2019-05-13T06:17:52.546Z,104009.33
2019-05-13T06:20:25.860Z,104005.13
2019-05-13T06:22:59.206Z,104007.85
2019-05-13T06:25:33.641Z,104014.45
2019-05-13T06:28:07.538Z,104008.91
2019-05-13T06:30:41.600Z,104011.48
2019-05-13T06:33:15.068Z,104014.35
2019-05-13T06:35:48.420Z,104014.03
2019-05-13T06:38:22.597Z,104014.56
2019-05-13T06:41:03.315Z,104018.02
2019-05-13T06:43:32.263Z,104023.71
2019-05-13T06:46:05.400Z,104022.72
2019-05-13T06:48:41.282Z,104022.02
2019-05-13T06:51:13.818Z,104016.93
2019-05-13T06:53:47.183Z,104017.67
2019-05-13T06:56:21.780Z,104013.75
2019-05-13T06:58:55.333Z,104007.74
2019-05-13T07:01:28.625Z,104008.66
2019-05-13T07:04:02.605Z,104019.75
2019-05-13T07:06:36.238Z,104016.04
2019-05-13T07:09:11.783Z,104017.34
2019-05-13T07:11:44.650Z,104013.75
2019-05-13T07:14:17.938Z,104017.45
2019-05-13T07:16:52.414Z,104014.34
2019-05-13T07:19:25.889Z,104015.38
2019-05-13T07:21:59.259Z,104016.47
2019-05-13T07:24:32.763Z,104023.47
2019-05-13T07:27:06.073Z,104021.77
2019-05-13T07:29:39.482Z,104025.02
2019-05-13T07:32:12.810Z,104022.80
2019-05-13T07:34:46.196Z,104019.05
2019-05-13T07:37:21.888Z,104024.97
2019-05-13T07:39:54.734Z,104029.32
2019-05-13T07:42:28.135Z,104024.62
2019-05-13T07:45:01.739Z,104028.71
2019-05-13T07:47:35.065Z,104030.87
2019-05-13T07:50:08.417Z,104035.08
2019-05-13T07:52:42.341Z,104031.55
2019-05-13T07:55:15.897Z,104034.53
2019-05-13T07:57:51.357Z,104028.69
2019-05-13T08:00:24.236Z,104029.60
2019-05-13T08:02:57.593Z,104038.59
2019-05-13T08:05:31.505Z,104038.76
2019-05-13T08:08:04.821Z,104046.27
2019-05-13T08:10:38.156Z,104046.83
2019-05-13T08:13:12.095Z,104040.91
2019-05-13T08:15:45.633Z,104042.67
2019-05-13T08:18:18.983Z,104047.38
2019-05-13T08:20:52.609Z,104051.21
2019-05-13T08:23:26.008Z,104045.06
2019-05-13T08:26:02.074Z,104043.55
2019-05-13T08:28:34.635Z,104044.95
2019-05-13T08:31:07.983Z,104043.16
2019-05-13T08:33:42.471Z,104047.53
2019-05-13T08:36:15.891Z,104044.49
2019-05-13T08:38:51.901Z,104041.84
2019-05-13T08:41:24.247Z,104048.94
2019-05-13T08:43:57.549Z,104054.53
2019-05-13T08:46:32.258Z,104052.47
2019-05-13T08:49:05.775Z,104044.69
2019-05-13T08:51:41.808Z,104050.28
2019-05-13T08:54:14.100Z,104058.23
2019-05-13T08:56:47.653Z,104055.00
2019-05-13T08:59:22.234Z,104054.20
2019-05-13T09:01:55.770Z,104048.16
2019-05-13T09:04:31.389Z,104052.53
2019-05-13T09:07:04.127Z,104047.33
2019-05-13T09:09:37.427Z,104043.31
2019-05-13T09:12:11.578Z,104042.12
2019-05-13T09:14:45.151Z,104042.61
2019-05-13T09:17:18.503Z,104036.07
2019-05-13T09:19:52.112Z,104040.30
2019-05-13T09:22:25.642Z,104036.44
2019-05-13T09:25:01.895Z,104044.23
2019-05-13T09:27:33.999Z,104039.27
2019-05-13T09:30:07.327Z,104036.73
2019-05-13T09:32:42.618Z,104041.19
2019-05-13T09:35:15.680Z,104034.67
2019-05-13T09:37:51.450Z,104040.76
2019-05-13T09:40:23.993Z,104042.95
2019-05-13T09:42:57.342Z,104046.02
2019-05-13T09:45:32.198Z,104039.45
2019-05-13T09:48:05.877Z,104042.06
2019-05-13T09:50:42.464Z,104034.13
2019-05-13T09:53:15.275Z,104040.96
2019-05-13T09:55:52.153Z,104043.64
2019-05-13T09:58:25.261Z,104028.79
2019-05-13T10:00:58.569Z,104039.35
2019-05-13T10:03:33.045Z,104035.42
2019-05-13T10:06:06.783Z,104034.27
2019-05-13T10:08:41.773Z,104033.42
2019-05-13T10:11:15.641Z,104033.85
2019-05-13T10:13:51.348Z,104032.77
2019-05-13T10:16:23.982Z,104025.80
2019-05-13T10:18:57.284Z,104032.44
2019-05-13T10:21:32.669Z,104023.29
2019-05-13T10:24:05.649Z,104021.91
2019-05-13T10:26:39.011Z,104024.23
2019-05-13T10:29:12.503Z,104018.22
2019-05-13T10:31:45.820Z,104018.32
2019-05-13T10:34:19.192Z,104012.53
2019-05-13T10:36:52.531Z,104005.54
2019-05-13T10:39:25.673Z,104017.83
2019-05-13T10:41:59.023Z,104010.73
2019-05-13T10:44:32.148Z,104006.36
2019-05-13T10:47:05.467Z,104008.58
2019-05-13T10:49:38.828Z,104008.64
2019-05-13T10:52:12.539Z,104009.43
2019-05-13T10:54:45.975Z,104002.10
2019-05-13T10:57:20.941Z,103999.69
2019-05-13T10:59:59.535Z,103999.66
2019-05-13T11:02:31.807Z,103994.16
2019-05-13T11:05:05.266Z,103992.42
2019-05-13T11:07:41.628Z,103986.45
2019-05-13T11:10:17.935Z,103977.42
2019-05-13T11:12:52.051Z,103972.20
2019-05-13T11:15:25.613Z,103976.87
2019-05-13T11:17:58.964Z,103976.18
2019-05-13T11:20:32.506Z,103976.87
2019-05-13T11:23:05.903Z,103971.73
2019-05-13T11:25:41.595Z,103962.06
2019-05-13T11:28:14.257Z,103965.63
2019-05-13T11:30:47.606Z,103962.29
2019-05-13T11:33:22.301Z,103958.07
2019-05-13T11:35:55.921Z,103959.91
2019-05-13T11:38:29.245Z,103957.38
2019-05-13T11:41:02.869Z,103958.11
2019-05-13T11:43:36.239Z,103955.69
2019-05-13T11:46:09.600Z,103958.48
2019-05-13T11:48:43.139Z,103951.31
2019-05-13T11:51:16.501Z,103955.03
2019-05-13T11:53:50.539Z,103950.06
2019-05-13T11:56:24.798Z,103942.52
2019-05-13T11:58:58.120Z,103946.75
2019-05-13T12:01:33.452Z,103956.23
2019-05-13T12:04:06.646Z,103955.22
2019-05-13T12:06:47.741Z,103957.67
2019-05-13T12:09:15.001Z,103953.05
2019-05-13T12:11:48.343Z,103956.25
2019-05-13T12:14:42.976Z,103952.91
2019-05-13T12:16:56.699Z,103949.50
2019-05-13T12:19:30.038Z,103940.83
2019-05-13T12:22:03.364Z,103943.95
2019-05-13T12:24:36.689Z,103941.86
2019-05-13T12:27:11.004Z,103932.30
2019-05-13T12:29:45.015Z,103929.20
2019-05-13T12:32:18.353Z,103930.98
2019-05-13T12:34:52.705Z,103938.42
2019-05-13T12:37:27.299Z,103944.53
2019-05-13T12:40:03.146Z,103937.99
2019-05-13T12:42:42.767Z,103940.24
2019-05-13T12:45:14.393Z,103937.25
2019-05-13T12:47:46.241Z,103936.03
2019-05-13T12:50:23.312Z,103931.70
2019-05-13T12:52:54.626Z,103925.30
2019-05-13T12:55:27.992Z,103930.50
2019-05-13T12:58:02.757Z,103932.75
2019-05-13T13:00:36.356Z,103932.80
2019-05-13T13:03:09.653Z,103924.51
2019-05-13T13:05:43.462Z,103926.27
2019-05-13T13:08:38.225Z,103920.76
2019-05-13T13:10:53.934Z,103917.79
2019-05-13T13:13:56.170Z,103919.55
2019-05-13T13:16:03.763Z,103917.50
2019-05-13T13:18:37.287Z,103925.84
2019-05-13T13:21:14.618Z,103922.52
2019-05-13T13:23:45.627Z,103922.42
2019-05-13T13:26:21.508Z,103916.96
2019-05-13T13:28:55.687Z,103910.78
2019-05-13T13:31:28.989Z,103911.60
2019-05-13T13:34:11.978Z,103911.31
2019-05-13T13:36:39.057Z,103904.63
2019-05-13T13:39:14.766Z,103913.43
2019-05-13T13:41:47.395Z,103908.77
2019-05-13T13:44:24.992Z,103905.84
2019-05-13T13:46:56.073Z,103901.52
2019-05-13T13:49:34.526Z,103891.44
2019-05-13T13:52:04.520Z,103891.42
2019-05-13T13:54:37.959Z,103891.72
2019-05-13T13:57:13.383Z,103889.71
2019-05-13T14:00:16.283Z,103883.70
2019-05-13T14:02:25.080Z,103888.69
2019-05-13T14:04:56.571Z,103884.42
2019-05-13T14:07:35.789Z,103887.30
2019-05-13T14:10:07.120Z,103895.44
2019-05-13T14:12:41.728Z,103882.99
2019-05-13T14:15:15.187Z,103877.06
2019-05-13T14:17:48.662Z,103885.53
2019-05-13T14:20:22.102Z,103885.78
2019-05-13T14:23:06.715Z,103881.44
2019-05-13T14:25:32.454Z,103885.57
2019-05-13T14:28:06.052Z,103880.89
2019-05-13T14:30:42.029Z,103883.38
2019-05-13T14:33:14.971Z,103878.48
2019-05-13T14:35:48.578Z,103878.79
2019-05-13T14:38:22.410Z,103869.59
2019-05-13T14:40:56.422Z,103862.60
2019-05-13T14:43:31.745Z,103867.31
2019-05-13T14:46:05.269Z,103853.80
2019-05-13T14:48:38.586Z,103850.64
2019-05-13T14:51:12.364Z,103853.69
2019-05-13T14:53:45.748Z,103844.86
2019-05-13T14:56:22.136Z,103843.52
2019-05-13T14:58:56.177Z,103841.36
2019-05-13T15:01:31.753Z,103841.28
2019-05-13T15:04:04.503Z,103842.95
2019-05-13T15:06:37.844Z,103845.01
2019-05-13T15:09:12.654Z,103839.19
2019-05-13T15:11:46.261Z,103831.21
2019-05-13T15:14:22.002Z,103830.55
2019-05-13T15:17:03.005Z,103831.47
2019-05-13T15:19:31.705Z,103820.86
2019-05-13T15:22:05.209Z,103825.56
2019-05-13T15:24:41.106Z,103819.33
2019-05-13T15:27:13.557Z,103824.12
2019-05-13T15:29:46.907Z,103754.02
2019-05-13T15:32:21.813Z,103809.95
2019-05-13T15:34:55.553Z,103818.69
2019-05-13T15:37:28.855Z,103805.94
2019-05-13T15:40:03.773Z,103816.42
2019-05-13T15:42:36.951Z,103805.94
2019-05-13T15:45:12.481Z,103812.05
2019-05-13T15:47:46.207Z,103800.14
2019-05-13T15:50:21.412Z,103750.47
2019-05-13T15:52:54.558Z,103811.88
2019-05-13T15:55:28.183Z,103816.96
2019-05-13T15:58:02.424Z,103812.05
2019-05-13T16:00:35.969Z,103730.30
2019-05-13T16:03:11.639Z,103808.55
2019-05-13T16:05:45.605Z,103802.11
2019-05-13T16:08:19.082Z,103801.27
2019-05-13T16:10:53.437Z,103798.17
2019-05-13T16:13:27.070Z,103796.87
2019-05-13T16:16:01.500Z,103792.09
2019-05-13T16:18:35.295Z,103793.45
2019-05-13T16:21:08.610Z,103795.64
2019-05-13T16:23:42.859Z,103791.81
2019-05-13T16:26:16.314Z,103792.28
2019-05-13T16:28:51.955Z,103784.61
2019-05-13T16:31:24.693Z,103789.47
2019-05-13T16:33:58.049Z,103796.33
2019-05-13T16:36:31.466Z,103791.68
2019-05-13T16:39:05.931Z,103792.09
2019-05-13T16:41:39.306Z,103783.41
2019-05-13T16:44:12.661Z,103792.20
2019-05-13T16:46:45.965Z,103780.89
2019-05-13T16:49:21.252Z,103785.69
2019-05-13T16:51:54.670Z,103781.80
2019-05-13T16:54:28.050Z,103784.83
2019-05-13T16:57:01.383Z,103783.11
2019-05-13T16:59:34.779Z,103774.34
2019-05-13T17:02:08.106Z,103773.03
2019-05-13T17:04:41.608Z,103766.03
2019-05-13T17:07:15.232Z,103773.98
2019-05-13T17:09:48.563Z,103770.94
2019-05-13T17:12:21.933Z,103769.19
2019-05-13T17:14:55.245Z,103776.20
2019-05-13T17:17:28.614Z,103771.83
2019-05-13T17:20:03.390Z,103775.80
2019-05-13T17:22:36.781Z,103783.21
2019-05-13T17:25:12.622Z,103771.87
2019-05-13T17:27:45.924Z,103774.11
2019-05-13T17:30:22.020Z,103768.87
2019-05-13T17:32:55.317Z,103770.56
2019-05-13T17:35:28.770Z,103773.27
2019-05-13T17:38:02.355Z,103764.97
2019-05-13T17:40:35.791Z,103768.88
2019-05-13T17:43:11.782Z,103769.87
2019-05-13T17:45:44.789Z,103770.31
2019-05-13T17:48:28.530Z,103776.78
2019-05-13T17:50:53.127Z,103771.52
2019-05-13T17:53:26.511Z,103771.48
2019-05-13T17:56:02.145Z,103777.61
2019-05-13T17:58:34.960Z,103773.61
2019-05-13T18:01:08.353Z,103775.73
2019-05-13T18:03:41.713Z,103775.64
2019-05-13T18:06:15.105Z,103774.63
2019-05-13T18:08:48.462Z,103774.64
2019-05-13T18:11:22.062Z,103776.27
2019-05-13T18:13:55.447Z,103776.61
2019-05-13T18:16:28.878Z,103767.38
2019-05-13T18:19:02.232Z,103769.93
2019-05-13T18:21:35.567Z,103763.27
2019-05-13T18:24:08.949Z,103760.08
2019-05-13T18:26:42.349Z,103763.44
2019-05-13T18:29:15.709Z,103762.44
2019-05-13T18:31:49.139Z,103768.84
2019-05-13T18:34:22.474Z,103763.56
2019-05-13T18:36:57.770Z,103764.77
2019-05-13T18:39:32.260Z,103763.84
2019-05-13T18:42:06.090Z,103765.47
2019-05-13T18:44:42.009Z,103766.80
2019-05-13T18:47:15.754Z,103774.95
2019-05-13T18:49:49.482Z,103766.62
2019-05-13T18:52:23.017Z,103765.27
2019-05-13T18:54:56.346Z,103761.70
2019-05-13T18:57:31.740Z,103755.52
2019-05-13T19:00:05.971Z,103744.00
2019-05-13T19:02:41.525Z,103756.32
2019-05-13T19:05:14.606Z,103757.50
2019-05-13T19:07:47.963Z,103759.18
2019-05-13T19:10:22.846Z,103760.94
2019-05-13T19:12:57.913Z,103762.17
2019-05-13T19:15:31.702Z,103764.28
2019-05-13T19:18:05.209Z,103767.75
2019-05-13T19:20:38.614Z,103768.95
2019-05-13T19:23:12.059Z,103772.81
2019-05-13T19:25:45.360Z,103770.62
2019-05-13T19:28:19.378Z,103777.56
2019-05-13T19:30:52.880Z,103778.81
2019-05-13T19:33:26.220Z,103780.95
2019-05-13T19:36:01.355Z,103780.84
2019-05-13T19:38:35.055Z,103782.74
2019-05-13T19:41:08.455Z,103781.34
2019-05-13T19:43:42.074Z,103782.23
2019-05-13T19:46:15.553Z,103783.53
2019-05-13T19:48:48.910Z,103787.38
2019-05-13T19:51:22.224Z,103776.23
2019-05-13T19:53:55.550Z,103787.83
2019-05-13T19:56:29.010Z,103794.37
2019-05-13T19:59:05.780Z,103710.55
2019-05-13T20:01:42.109Z,103794.00
2019-05-13T20:04:14.568Z,103794.80
2019-05-13T20:06:47.895Z,103793.09
2019-05-13T20:09:21.622Z,103792.61
2019-05-13T20:11:55.589Z,103792.97
2019-05-13T20:14:29.426Z,103792.03
2019-05-13T20:17:02.808Z,103793.22
2019-05-13T20:19:47.754Z,103792.80
2019-05-13T20:22:11.713Z,103791.12
2019-05-13T20:24:45.084Z,103760.43
2019-05-13T20:27:18.400Z,103795.84
2019-05-13T20:29:52.069Z,103794.47
2019-05-13T20:32:25.379Z,103797.81
2019-05-13T20:34:58.759Z,103796.05
2019-05-13T20:37:32.269Z,103801.22
2019-05-13T20:40:05.897Z,103795.90
2019-05-13T20:42:41.231Z,103787.15
2019-05-13T20:45:14.907Z,103785.83
2019-05-13T20:47:48.309Z,103787.75
2019-05-13T20:50:21.931Z,103788.97
2019-05-13T20:52:55.258Z,103781.86
2019-05-13T20:55:28.750Z,103782.28
2019-05-13T20:58:02.053Z,103782.56
2019-05-13T21:00:35.394Z,103780.34
2019-05-13T21:03:08.709Z,103775.48
2019-05-13T21:05:42.046Z,103771.50
2019-05-13T21:08:15.647Z,103776.69
2019-05-13T21:10:51.570Z,103771.89
2019-05-13T21:13:24.058Z,103768.83
2019-05-13T21:15:57.419Z,103757.06
2019-05-13T21:18:31.553Z,103771.38
2019-05-13T21:21:05.147Z,103777.48
2019-05-13T21:23:38.461Z,103766.97
2019-05-13T21:26:15.322Z,103763.87
2019-05-13T21:28:46.807Z,103759.95
2019-05-13T21:31:21.508Z,103761.19
2019-05-13T21:33:54.958Z,103765.53
2019-05-13T21:36:28.306Z,103770.73
2019-05-13T21:39:01.854Z,103761.09
2019-05-13T21:41:35.808Z,103754.99
2019-05-13T21:44:09.140Z,103757.63
2019-05-13T21:46:42.456Z,103753.23
2019-05-13T21:49:17.515Z,103751.05
2019-05-13T21:51:52.441Z,103755.75
2019-05-13T21:54:27.391Z,103757.03
2019-05-13T21:57:02.236Z,103759.59
2019-05-13T21:59:35.926Z,103754.17
2019-05-13T22:02:09.323Z,103751.38
2019-05-13T22:04:42.675Z,103754.83
2019-05-13T22:07:15.992Z,103763.42
2019-05-13T22:09:51.328Z,103759.05
2019-05-13T22:12:24.546Z,103756.83
2019-05-13T22:14:57.878Z,103746.80
2019-05-13T22:17:31.678Z,103745.86
2019-05-13T22:20:06.126Z,103748.37
2019-05-13T22:22:41.437Z,103756.50
2019-05-13T22:25:14.459Z,103757.67
2019-05-13T22:27:47.781Z,103758.42
2019-05-13T22:30:21.138Z,103758.33
2019-05-13T22:32:54.447Z,103751.17
2019-05-13T22:35:27.790Z,103752.91
2019-05-13T22:38:01.738Z,103763.67
2019-05-13T22:40:35.314Z,103772.73
2019-05-13T22:43:08.687Z,103773.87
2019-05-13T22:45:42.266Z,103772.95
2019-05-13T22:48:15.540Z,103774.15
2019-05-13T22:50:51.999Z,103774.01
2019-05-13T22:53:25.370Z,103769.21
2019-05-13T22:55:58.769Z,103766.04
2019-05-13T22:58:32.350Z,103774.33
2019-05-13T23:01:05.702Z,103766.46
2019-05-13T23:03:41.081Z,103760.78
2019-05-13T23:06:15.687Z,103767.59
2019-05-13T23:08:49.187Z,103763.28
2019-05-13T23:11:22.529Z,103773.19
2019-05-13T23:14:07.336Z,103769.23
2019-05-13T23:16:31.645Z,103767.41
2019-05-13T23:19:05.137Z,103770.44
2019-05-13T23:21:38.514Z,103769.09
2019-05-13T23:24:12.022Z,103770.33
2019-05-13T23:26:45.354Z,103773.81
2019-05-13T23:29:18.662Z,103776.39
2019-05-13T23:31:52.519Z,103776.39
2019-05-13T23:34:25.853Z,103768.14
2019-05-13T23:36:59.222Z,103765.00
2019-05-13T23:39:32.564Z,103761.94
2019-05-13T23:42:05.911Z,103763.55
2019-05-13T23:44:41.438Z,103765.63
2019-05-13T23:47:14.354Z,103753.89
2019-05-13T23:49:47.683Z,103748.59
2019-05-13T23:52:21.950Z,103749.41
2019-05-13T23:54:55.415Z,103752.13
2019-05-13T23:57:28.731Z,103746.84
